sensor_id;sensor_type;location;lat;lon;timestamp;pressure;altitude;pressure_sealevel;temperature;humidity
63321;BME280;49449;48.800;9.534;2023-06-22T00:02:26;98575.81;;;21.58;43.22
63321;BME280;49449;48.800;9.534;2023-06-22T00:04:54;98567.75;;;21.58;42.94
63321;BME280;49449;48.800;9.534;2023-06-22T00:07:21;98568.84;;;21.57;42.96
63321;BME280;49449;48.800;9.534;2023-06-22T00:09:50;98571.28;;;21.53;43.07
63321;BME280;49449;48.800;9.534;2023-06-22T00:12:19;98569.28;;;21.45;43.20
63321;BME280;49449;48.800;9.534;2023-06-22T00:14:47;98573.19;;;21.25;43.70
63321;BME280;49449;48.800;9.534;2023-06-22T00:17:15;98561.84;;;21.14;43.58
63321;BME280;49449;48.800;9.534;2023-06-22T00:19:43;98554.75;;;21.18;43.79
63321;BME280;49449;48.800;9.534;2023-06-22T00:22:11;98557.84;;;21.25;43.64
63321;BME280;49449;48.800;9.534;2023-06-22T00:24:39;98551.97;;;21.23;43.52
63321;BME280;49449;48.800;9.534;2023-06-22T00:27:06;98563.22;;;21.25;43.55
63321;BME280;49449;48.800;9.534;2023-06-22T00:29:35;98559.44;;;21.26;43.77
63321;BME280;49449;48.800;9.534;2023-06-22T00:32:04;98564.81;;;21.26;43.62
63321;BME280;49449;48.800;9.534;2023-06-22T00:34:32;98567.03;;;21.24;43.67
63321;BME280;49449;48.800;9.534;2023-06-22T00:37:00;98570.50;;;21.25;43.49
63321;BME280;49449;48.800;9.534;2023-06-22T00:39:28;98567.22;;;21.28;43.39
63321;BME280;49449;48.800;9.534;2023-06-22T00:41:56;98563.94;;;21.31;43.31
63321;BME280;49449;48.800;9.534;2023-06-22T00:44:24;98562.84;;;21.32;43.51
63321;BME280;49449;48.800;9.534;2023-06-22T00:46:53;98563.31;;;21.34;43.32
63321;BME280;49449;48.800;9.534;2023-06-22T00:49:21;98558.06;;;21.29;43.51
63321;BME280;49449;48.800;9.534;2023-06-22T00:51:49;98559.56;;;21.21;43.59
63321;BME280;49449;48.800;9.534;2023-06-22T00:54:17;98551.97;;;21.23;43.87
63321;BME280;49449;48.800;9.534;2023-06-22T00:56:53;98544.31;;;21.16;43.83
63321;BME280;49449;48.800;9.534;2023-06-22T00:59:23;98551.00;;;21.19;43.64
63321;BME280;49449;48.800;9.534;2023-06-22T01:01:54;98555.06;;;21.16;43.59
63321;BME280;49449;48.800;9.534;2023-06-22T01:04:25;98548.91;;;21.16;43.52
63321;BME280;49449;48.800;9.534;2023-06-22T01:07:10;98556.66;;;21.17;43.46
63321;BME280;49449;48.800;9.534;2023-06-22T01:09:52;98567.31;;;21.23;43.33
63321;BME280;49449;48.800;9.534;2023-06-22T01:12:22;98567.31;;;21.23;43.08
63321;BME280;49449;48.800;9.534;2023-06-22T01:14:55;98570.50;;;21.25;43.26
63321;BME280;49449;48.800;9.534;2023-06-22T01:17:26;98581.25;;;21.25;43.02
63321;BME280;49449;48.800;9.534;2023-06-22T01:19:55;98579.34;;;21.25;43.24
63321;BME280;49449;48.800;9.534;2023-06-22T01:22:26;98582.34;;;21.24;43.42
63321;BME280;49449;48.800;9.534;2023-06-22T01:25:03;98604.63;;;21.24;43.39
63321;BME280;49449;48.800;9.534;2023-06-22T01:27:40;98615.88;;;21.26;43.15
63321;BME280;49449;48.800;9.534;2023-06-22T01:30:16;98616.94;;;21.25;43.43
63321;BME280;49449;48.800;9.534;2023-06-22T01:32:47;98603.84;;;21.24;43.31
63321;BME280;49449;48.800;9.534;2023-06-22T01:35:16;98594.84;;;21.14;43.60
63321;BME280;49449;48.800;9.534;2023-06-22T01:37:45;98611.66;;;21.06;43.70
63321;BME280;49449;48.800;9.534;2023-06-22T01:40:15;98616.97;;;21.11;43.55
63321;BME280;49449;48.800;9.534;2023-06-22T01:42:43;98605.97;;;20.94;44.20
63321;BME280;49449;48.800;9.534;2023-06-22T01:45:12;98595.13;;;20.66;44.72
63321;BME280;49449;48.800;9.534;2023-06-22T01:47:41;98588.69;;;20.48;44.94
63321;BME280;49449;48.800;9.534;2023-06-22T01:50:09;98597.16;;;20.55;45.10
63321;BME280;49449;48.800;9.534;2023-06-22T01:52:38;98594.63;;;20.64;44.56
63321;BME280;49449;48.800;9.534;2023-06-22T01:55:06;98589.97;;;20.70;44.45
63321;BME280;49449;48.800;9.534;2023-06-22T01:57:35;98587.34;;;20.65;44.88
63321;BME280;49449;48.800;9.534;2023-06-22T02:00:04;98589.75;;;20.66;44.57
63321;BME280;49449;48.800;9.534;2023-06-22T02:02:51;98598.88;;;20.65;44.42
63321;BME280;49449;48.800;9.534;2023-06-22T02:05:23;98601.47;;;20.70;44.59
63321;BME280;49449;48.800;9.534;2023-06-22T02:08:00;98597.22;;;20.69;44.44
63321;BME280;49449;48.800;9.534;2023-06-22T02:10:31;98589.38;;;20.73;44.25
63321;BME280;49449;48.800;9.534;2023-06-22T02:13:00;98597.03;;;20.47;44.92
63321;BME280;49449;48.800;9.534;2023-06-22T02:15:28;98606.78;;;20.56;44.50
63321;BME280;49449;48.800;9.534;2023-06-22T02:17:58;98608.81;;;20.65;44.66
63321;BME280;49449;48.800;9.534;2023-06-22T02:20:26;98600.50;;;20.66;44.33
63321;BME280;49449;48.800;9.534;2023-06-22T02:22:54;98604.72;;;20.53;45.32
63321;BME280;49449;48.800;9.534;2023-06-22T02:25:21;98594.72;;;20.40;44.92
63321;BME280;49449;48.800;9.534;2023-06-22T02:27:49;98601.41;;;20.42;45.05
63321;BME280;49449;48.800;9.534;2023-06-22T02:30:17;98598.09;;;20.46;44.84
63321;BME280;49449;48.800;9.534;2023-06-22T02:32:45;98595.94;;;20.48;44.76
63321;BME280;49449;48.800;9.534;2023-06-22T02:35:14;98594.00;;;20.53;44.64
63321;BME280;49449;48.800;9.534;2023-06-22T02:37:42;98583.81;;;20.50;44.61
63321;BME280;49449;48.800;9.534;2023-06-22T02:40:10;98593.56;;;20.46;44.84
63321;BME280;49449;48.800;9.534;2023-06-22T02:42:39;98584.25;;;20.38;44.93
63321;BME280;49449;48.800;9.534;2023-06-22T02:45:07;98588.47;;;20.45;44.69
63321;BME280;49449;48.800;9.534;2023-06-22T02:47:35;98593.47;;;20.51;44.43
63321;BME280;49449;48.800;9.534;2023-06-22T02:50:04;98582.00;;;20.46;44.34
63321;BME280;49449;48.800;9.534;2023-06-22T02:52:33;98580.09;;;20.32;45.13
63321;BME280;49449;48.800;9.534;2023-06-22T02:55:01;98582.84;;;20.27;45.13
63321;BME280;49449;48.800;9.534;2023-06-22T02:57:29;98586.53;;;20.31;44.64
63321;BME280;49449;48.800;9.534;2023-06-22T02:59:57;98578.31;;;20.22;44.60
63321;BME280;49449;48.800;9.534;2023-06-22T03:02:25;98574.31;;;20.20;44.75
63321;BME280;49449;48.800;9.534;2023-06-22T03:04:54;98563.69;;;20.15;45.24
63321;BME280;49449;48.800;9.534;2023-06-22T03:07:22;98559.47;;;20.09;45.00
63321;BME280;49449;48.800;9.534;2023-06-22T03:09:51;98551.78;;;20.02;45.27
63321;BME280;49449;48.800;9.534;2023-06-22T03:12:18;98560.56;;;20.08;44.88
63321;BME280;49449;48.800;9.534;2023-06-22T03:14:46;98552.72;;;20.11;44.63
63321;BME280;49449;48.800;9.534;2023-06-22T03:17:14;98556.41;;;20.15;44.97
63321;BME280;49449;48.800;9.534;2023-06-22T03:19:42;98556.63;;;20.19;44.56
63321;BME280;49449;48.800;9.534;2023-06-22T03:22:09;98552.06;;;20.19;44.80
63321;BME280;49449;48.800;9.534;2023-06-22T03:24:38;98557.13;;;20.21;44.60
63321;BME280;49449;48.800;9.534;2023-06-22T03:27:08;98554.16;;;20.22;44.54
63321;BME280;49449;48.800;9.534;2023-06-22T03:29:35;98552.06;;;20.19;44.73
63321;BME280;49449;48.800;9.534;2023-06-22T03:32:04;98551.78;;;20.21;44.41
63321;BME280;49449;48.800;9.534;2023-06-22T03:34:32;98551.78;;;20.21;44.19
63321;BME280;49449;48.800;9.534;2023-06-22T03:37:00;98552.38;;;20.18;44.16
63321;BME280;49449;48.800;9.534;2023-06-22T03:39:29;98549.91;;;20.21;44.63
63321;BME280;49449;48.800;9.534;2023-06-22T03:41:57;98550.69;;;20.22;44.37
63321;BME280;49449;48.800;9.534;2023-06-22T03:44:27;98542.34;;;20.23;44.40
63321;BME280;49449;48.800;9.534;2023-06-22T03:46:55;98543.22;;;20.19;44.59
63321;BME280;49449;48.800;9.534;2023-06-22T03:49:22;98544.63;;;20.16;44.58
63321;BME280;49449;48.800;9.534;2023-06-22T03:51:50;98550.19;;;20.20;44.40
63321;BME280;49449;48.800;9.534;2023-06-22T03:54:18;98548.59;;;20.19;44.54
63321;BME280;49449;48.800;9.534;2023-06-22T03:56:45;98548.59;;;20.19;44.66
63321;BME280;49449;48.800;9.534;2023-06-22T03:59:13;98550.69;;;20.22;44.28
63321;BME280;49449;48.800;9.534;2023-06-22T04:01:42;98552.22;;;20.28;44.41
63321;BME280;49449;48.800;9.534;2023-06-22T04:04:11;98559.19;;;20.29;44.34
63321;BME280;49449;48.800;9.534;2023-06-22T04:06:39;98556.22;;;20.31;44.23
63321;BME280;49449;48.800;9.534;2023-06-22T04:09:07;98557.81;;;20.32;44.22
63321;BME280;49449;48.800;9.534;2023-06-22T04:11:35;98558.84;;;20.36;44.42
63321;BME280;49449;48.800;9.534;2023-06-22T04:14:02;98558.47;;;20.42;43.92
63321;BME280;49449;48.800;9.534;2023-06-22T04:16:30;98554.38;;;20.45;43.94
63321;BME280;49449;48.800;9.534;2023-06-22T04:18:59;98552.22;;;20.47;43.98
63321;BME280;49449;48.800;9.534;2023-06-22T04:21:27;98546.19;;;20.55;43.76
63321;BME280;49449;48.800;9.534;2023-06-22T04:23:55;98544.00;;;20.57;43.66
63321;BME280;49449;48.800;9.534;2023-06-22T04:26:23;98535.06;;;20.62;43.68
63321;BME280;49449;48.800;9.534;2023-06-22T04:28:50;98530.69;;;20.66;43.62
63321;BME280;49449;48.800;9.534;2023-06-22T04:31:21;98523.34;;;20.72;43.46
63321;BME280;49449;48.800;9.534;2023-06-22T04:34:00;98522.19;;;20.78;43.49
63321;BME280;49449;48.800;9.534;2023-06-22T04:36:34;98518.31;;;20.84;43.19
63321;BME280;49449;48.800;9.534;2023-06-22T04:39:05;98516.31;;;20.90;43.07
63321;BME280;49449;48.800;9.534;2023-06-22T04:41:33;98513.19;;;21.02;42.62
63321;BME280;49449;48.800;9.534;2023-06-22T04:44:09;98518.38;;;21.12;42.46
63321;BME280;49449;48.800;9.534;2023-06-22T04:46:37;98519.25;;;21.21;42.20
63321;BME280;49449;48.800;9.534;2023-06-22T04:49:07;98509.00;;;21.37;42.08
63321;BME280;49449;48.800;9.534;2023-06-22T04:51:39;98503.53;;;21.42;41.72
63321;BME280;49449;48.800;9.534;2023-06-22T04:54:09;98503.41;;;21.47;42.34
63321;BME280;49449;48.800;9.534;2023-06-22T04:56:37;98493.97;;;21.36;42.51
63321;BME280;49449;48.800;9.534;2023-06-22T04:59:07;98485.13;;;21.35;42.40
63321;BME280;49449;48.800;9.534;2023-06-22T05:01:40;98479.63;;;21.41;42.65
63321;BME280;49449;48.800;9.534;2023-06-22T05:04:09;98478.75;;;21.45;42.37
63321;BME280;49449;48.800;9.534;2023-06-22T05:06:37;98471.97;;;21.48;42.47
63321;BME280;49449;48.800;9.534;2023-06-22T05:09:06;98478.25;;;21.43;42.41
63321;BME280;49449;48.800;9.534;2023-06-22T05:11:34;98486.63;;;21.42;42.38
63321;BME280;49449;48.800;9.534;2023-06-22T05:14:02;98477.53;;;21.51;41.23
63321;BME280;49449;48.800;9.534;2023-06-22T05:16:29;98480.31;;;21.60;41.33
63321;BME280;49449;48.800;9.534;2023-06-22T05:18:57;98478.94;;;21.63;41.73
63321;BME280;49449;48.800;9.534;2023-06-22T05:21:27;98470.94;;;21.71;40.76
63321;BME280;49449;48.800;9.534;2023-06-22T05:23:55;98471.13;;;21.75;41.30
63321;BME280;49449;48.800;9.534;2023-06-22T05:26:26;98477.69;;;21.83;41.65
63321;BME280;49449;48.800;9.534;2023-06-22T05:28:54;98473.09;;;21.83;41.13
63321;BME280;49449;48.800;9.534;2023-06-22T05:31:22;98471.56;;;21.68;41.98
63321;BME280;49449;48.800;9.534;2023-06-22T05:33:51;98461.25;;;21.84;41.43
63321;BME280;49449;48.800;9.534;2023-06-22T05:36:20;98463.81;;;21.89;41.32
63321;BME280;49449;48.800;9.534;2023-06-22T05:38:53;98466.00;;;21.65;41.68
63321;BME280;49449;48.800;9.534;2023-06-22T05:41:20;98460.94;;;21.86;41.25
63321;BME280;49449;48.800;9.534;2023-06-22T05:43:48;98467.34;;;21.99;41.39
63321;BME280;49449;48.800;9.534;2023-06-22T05:46:16;98453.38;;;22.10;41.20
63321;BME280;49449;48.800;9.534;2023-06-22T05:48:44;98453.13;;;21.98;41.48
63321;BME280;49449;48.800;9.534;2023-06-22T05:51:12;98451.16;;;22.12;40.81
63321;BME280;49449;48.800;9.534;2023-06-22T05:53:39;98453.00;;;22.26;40.82
63321;BME280;49449;48.800;9.534;2023-06-22T05:56:09;98454.47;;;22.32;40.71
63321;BME280;49449;48.800;9.534;2023-06-22T05:58:36;98461.81;;;22.40;40.16
63321;BME280;49449;48.800;9.534;2023-06-22T06:01:04;98454.13;;;22.56;40.55
63321;BME280;49449;48.800;9.534;2023-06-22T06:03:32;98453.75;;;22.40;40.60
63321;BME280;49449;48.800;9.534;2023-06-22T06:05:59;98452.53;;;22.55;39.95
63321;BME280;49449;48.800;9.534;2023-06-22T06:08:28;98456.22;;;22.68;39.40
63321;BME280;49449;48.800;9.534;2023-06-22T06:10:56;98451.50;;;22.74;39.91
63321;BME280;49449;48.800;9.534;2023-06-22T06:13:26;98444.81;;;22.94;39.26
63321;BME280;49449;48.800;9.534;2023-06-22T06:15:53;98437.09;;;23.10;39.32
63321;BME280;49449;48.800;9.534;2023-06-22T06:18:22;98436.31;;;23.18;39.26
63321;BME280;49449;48.800;9.534;2023-06-22T06:20:49;98437.09;;;23.10;39.43
63321;BME280;49449;48.800;9.534;2023-06-22T06:23:17;98443.59;;;23.26;39.20
63321;BME280;49449;48.800;9.534;2023-06-22T06:25:45;98434.66;;;23.48;37.79
63321;BME280;49449;48.800;9.534;2023-06-22T06:28:13;98437.19;;;23.53;38.23
63321;BME280;49449;48.800;9.534;2023-06-22T06:30:42;98441.78;;;23.70;38.08
63321;BME280;49449;48.800;9.534;2023-06-22T06:33:10;98441.47;;;23.72;38.10
63321;BME280;49449;48.800;9.534;2023-06-22T06:35:38;98428.59;;;23.77;37.97
63321;BME280;49449;48.800;9.534;2023-06-22T06:38:05;98437.50;;;23.95;37.49
63321;BME280;49449;48.800;9.534;2023-06-22T06:40:34;98434.31;;;23.93;37.79
63321;BME280;49449;48.800;9.534;2023-06-22T06:43:01;98441.00;;;24.05;37.62
63321;BME280;49449;48.800;9.534;2023-06-22T06:45:29;98436.69;;;24.12;36.82
63321;BME280;49449;48.800;9.534;2023-06-22T06:48:00;98435.22;;;24.24;36.83
63321;BME280;49449;48.800;9.534;2023-06-22T06:50:28;98433.94;;;24.38;36.29
63321;BME280;49449;48.800;9.534;2023-06-22T06:52:56;98431.06;;;24.52;36.51
63321;BME280;49449;48.800;9.534;2023-06-22T06:55:25;98443.75;;;24.52;35.99
63321;BME280;49449;48.800;9.534;2023-06-22T06:57:53;98445.19;;;24.41;36.21
63321;BME280;49449;48.800;9.534;2023-06-22T07:00:21;98440.22;;;24.60;35.97
63321;BME280;49449;48.800;9.534;2023-06-22T07:02:48;98434.47;;;24.70;35.24
63321;BME280;49449;48.800;9.534;2023-06-22T07:05:18;98443.88;;;24.64;35.20
63321;BME280;49449;48.800;9.534;2023-06-22T07:07:46;98437.13;;;24.79;35.58
63321;BME280;49449;48.800;9.534;2023-06-22T07:10:13;98438.47;;;24.94;35.44
63321;BME280;49449;48.800;9.534;2023-06-22T07:12:42;98430.84;;;24.96;35.20
63321;BME280;49449;48.800;9.534;2023-06-22T07:15:11;98436.72;;;25.07;34.64
63321;BME280;49449;48.800;9.534;2023-06-22T07:17:39;98444.97;;;25.10;34.59
63321;BME280;49449;48.800;9.534;2023-06-22T07:20:08;98438.38;;;25.20;34.50
63321;BME280;49449;48.800;9.534;2023-06-22T07:22:40;98432.38;;;25.36;34.43
63321;BME280;49449;48.800;9.534;2023-06-22T07:25:09;98426.19;;;25.56;33.95
63321;BME280;49449;48.800;9.534;2023-06-22T07:27:44;98418.50;;;25.67;33.67
63321;BME280;49449;48.800;9.534;2023-06-22T07:30:12;98412.34;;;25.79;33.89
63321;BME280;49449;48.800;9.534;2023-06-22T07:32:40;98410.81;;;25.90;33.49
63321;BME280;49449;48.800;9.534;2023-06-22T07:35:08;98407.00;;;26.03;33.13
63321;BME280;49449;48.800;9.534;2023-06-22T07:37:37;98399.00;;;26.07;32.87
63321;BME280;49449;48.800;9.534;2023-06-22T07:40:07;98397.38;;;26.15;32.70
63321;BME280;49449;48.800;9.534;2023-06-22T07:42:36;98388.81;;;26.25;32.85
63321;BME280;49449;48.800;9.534;2023-06-22T07:45:05;98385.22;;;26.33;32.27
63321;BME280;49449;48.800;9.534;2023-06-22T07:47:34;98378.78;;;26.38;32.88
63321;BME280;49449;48.800;9.534;2023-06-22T07:50:03;98375.63;;;26.36;32.71
63321;BME280;49449;48.800;9.534;2023-06-22T07:52:31;98368.75;;;26.38;32.34
63321;BME280;49449;48.800;9.534;2023-06-22T07:54:59;98359.28;;;26.32;32.66
63321;BME280;49449;48.800;9.534;2023-06-22T07:57:28;98349.56;;;26.31;32.53
63321;BME280;49449;48.800;9.534;2023-06-22T08:00:00;98350.34;;;26.44;31.83
63321;BME280;49449;48.800;9.534;2023-06-22T08:02:30;98353.88;;;26.44;32.07
63321;BME280;49449;48.800;9.534;2023-06-22T08:04:58;98346.84;;;26.56;31.46
63321;BME280;49449;48.800;9.534;2023-06-22T08:07:32;98338.84;;;26.59;31.64
63321;BME280;49449;48.800;9.534;2023-06-22T08:09:59;98329.94;;;26.71;31.94
63321;BME280;49449;48.800;9.534;2023-06-22T08:12:29;98331.59;;;26.88;31.03
63321;BME280;49449;48.800;9.534;2023-06-22T08:14:56;98328.53;;;27.02;30.86
63321;BME280;49449;48.800;9.534;2023-06-22T08:17:24;98316.97;;;27.17;30.37
63321;BME280;49449;48.800;9.534;2023-06-22T08:19:52;98321.13;;;27.27;30.18
63321;BME280;49449;48.800;9.534;2023-06-22T08:22:19;98312.16;;;27.39;30.63
63321;BME280;49449;48.800;9.534;2023-06-22T08:24:47;98310.97;;;27.52;30.37
63321;BME280;49449;48.800;9.534;2023-06-22T08:27:15;98309.84;;;27.69;29.43
63321;BME280;49449;48.800;9.534;2023-06-22T08:29:46;98312.78;;;27.77;28.28
63321;BME280;49449;48.800;9.534;2023-06-22T08:32:14;98311.06;;;27.84;29.05
63321;BME280;49449;48.800;9.534;2023-06-22T08:34:42;98314.66;;;28.04;29.05
63321;BME280;49449;48.800;9.534;2023-06-22T08:37:10;98313.09;;;28.19;28.93
63321;BME280;49449;48.800;9.534;2023-06-22T08:39:38;98320.69;;;28.29;28.59
63321;BME280;49449;48.800;9.534;2023-06-22T08:42:06;98328.66;;;28.38;27.94
63321;BME280;49449;48.800;9.534;2023-06-22T08:44:34;98347.50;;;28.47;28.30
63321;BME280;49449;48.800;9.534;2023-06-22T08:47:04;98352.41;;;28.57;27.78
63321;BME280;49449;48.800;9.534;2023-06-22T08:49:32;98357.66;;;28.66;28.61
63321;BME280;49449;48.800;9.534;2023-06-22T08:52:00;98364.84;;;28.74;28.08
63321;BME280;49449;48.800;9.534;2023-06-22T08:54:27;98369.38;;;28.86;27.77
63321;BME280;49449;48.800;9.534;2023-06-22T08:56:55;98365.03;;;29.01;27.00
63321;BME280;49449;48.800;9.534;2023-06-22T08:59:23;98372.47;;;29.20;26.97
63321;BME280;49449;48.800;9.534;2023-06-22T09:01:51;98387.91;;;29.35;26.62
63321;BME280;49449;48.800;9.534;2023-06-22T09:04:20;98386.34;;;29.54;26.91
63321;BME280;49449;48.800;9.534;2023-06-22T09:06:49;98390.84;;;29.66;26.55
63321;BME280;49449;48.800;9.534;2023-06-22T09:09:21;98393.50;;;29.62;26.04
63321;BME280;49449;48.800;9.534;2023-06-22T09:11:49;98377.97;;;29.62;26.20
63321;BME280;49449;48.800;9.534;2023-06-22T09:14:17;98374.31;;;29.74;26.69
63321;BME280;49449;48.800;9.534;2023-06-22T09:16:45;98363.31;;;29.90;26.28
63321;BME280;49449;48.800;9.534;2023-06-22T09:19:13;98348.34;;;30.00;26.06
63321;BME280;49449;48.800;9.534;2023-06-22T09:21:42;98342.53;;;30.02;26.57
63321;BME280;49449;48.800;9.534;2023-06-22T09:24:10;98338.69;;;30.06;26.16
63321;BME280;49449;48.800;9.534;2023-06-22T09:26:38;98330.28;;;29.92;26.05
63321;BME280;49449;48.800;9.534;2023-06-22T09:29:06;98337.25;;;29.89;25.67
63321;BME280;49449;48.800;9.534;2023-06-22T09:31:34;98335.91;;;29.79;25.72
63321;BME280;49449;48.800;9.534;2023-06-22T09:34:02;98335.31;;;29.90;26.29
63321;BME280;49449;48.800;9.534;2023-06-22T09:36:30;98338.28;;;30.04;26.33
63321;BME280;49449;48.800;9.534;2023-06-22T09:39:00;98332.38;;;30.22;25.71
63321;BME280;49449;48.800;9.534;2023-06-22T09:41:33;98335.75;;;30.38;25.64
63321;BME280;49449;48.800;9.534;2023-06-22T09:44:00;98327.78;;;30.26;24.72
63321;BME280;49449;48.800;9.534;2023-06-22T09:46:28;98325.06;;;30.26;25.24
63321;BME280;49449;48.800;9.534;2023-06-22T09:48:56;98326.06;;;30.41;25.10
63321;BME280;49449;48.800;9.534;2023-06-22T09:51:24;98330.41;;;30.45;25.21
63321;BME280;49449;48.800;9.534;2023-06-22T09:53:52;98338.31;;;30.54;24.81
63321;BME280;49449;48.800;9.534;2023-06-22T09:56:22;98330.66;;;30.36;25.15
63321;BME280;49449;48.800;9.534;2023-06-22T09:58:51;98324.09;;;30.41;24.93
63321;BME280;49449;48.800;9.534;2023-06-22T10:01:19;98316.41;;;30.47;25.17
63321;BME280;49449;48.800;9.534;2023-06-22T10:03:48;98314.16;;;30.52;25.26
63321;BME280;49449;48.800;9.534;2023-06-22T10:06:16;98316.53;;;30.54;25.27
63321;BME280;49449;48.800;9.534;2023-06-22T10:08:43;98316.44;;;30.73;24.82
63321;BME280;49449;48.800;9.534;2023-06-22T10:11:11;98313.25;;;30.71;24.50
63321;BME280;49449;48.800;9.534;2023-06-22T10:13:40;98311.53;;;30.60;24.88
63321;BME280;49449;48.800;9.534;2023-06-22T10:16:08;98313.81;;;30.54;24.94
63321;BME280;49449;48.800;9.534;2023-06-22T10:18:36;98309.50;;;30.80;24.77
63321;BME280;49449;48.800;9.534;2023-06-22T10:21:04;98296.50;;;31.00;24.73
63321;BME280;49449;48.800;9.534;2023-06-22T10:23:31;98292.56;;;30.97;24.67
63321;BME280;49449;48.800;9.534;2023-06-22T10:25:59;98290.28;;;31.03;24.66
63321;BME280;49449;48.800;9.534;2023-06-22T10:28:27;98292.56;;;30.97;24.80
63321;BME280;49449;48.800;9.534;2023-06-22T10:30:57;98290.63;;;30.98;24.90
63321;BME280;49449;48.800;9.534;2023-06-22T10:33:25;98292.50;;;30.90;25.04
63321;BME280;49449;48.800;9.534;2023-06-22T10:35:53;98289.81;;;30.93;25.13
63321;BME280;49449;48.800;9.534;2023-06-22T10:38:21;98282.97;;;30.77;25.04
63321;BME280;49449;48.800;9.534;2023-06-22T10:40:48;98270.13;;;30.77;25.12
63321;BME280;49449;48.800;9.534;2023-06-22T10:43:16;98255.75;;;30.80;25.17
63321;BME280;49449;48.800;9.534;2023-06-22T10:45:44;98253.53;;;30.89;24.71
63321;BME280;49449;48.800;9.534;2023-06-22T10:48:14;98259.34;;;30.88;24.77
63321;BME280;49449;48.800;9.534;2023-06-22T10:50:42;98276.31;;;30.74;24.75
63321;BME280;49449;48.800;9.534;2023-06-22T10:53:10;98257.38;;;30.85;25.77
63321;BME280;49449;48.800;9.534;2023-06-22T10:55:38;98256.09;;;31.09;25.36
63321;BME280;49449;48.800;9.534;2023-06-22T10:58:17;98249.91;;;31.12;24.88
63321;BME280;49449;48.800;9.534;2023-06-22T11:00:45;98235.06;;;31.09;24.44
63321;BME280;49449;48.800;9.534;2023-06-22T11:03:14;98245.50;;;31.04;24.66
63321;BME280;49449;48.800;9.534;2023-06-22T11:05:42;98242.72;;;30.97;24.46
63321;BME280;49449;48.800;9.534;2023-06-22T11:08:10;98242.38;;;31.02;24.46
63321;BME280;49449;48.800;9.534;2023-06-22T11:10:38;98240.03;;;31.00;24.38
63321;BME280;49449;48.800;9.534;2023-06-22T11:13:05;98238.06;;;31.01;24.22
63321;BME280;49449;48.800;9.534;2023-06-22T11:15:36;98233.97;;;31.14;24.61
63321;BME280;49449;48.800;9.534;2023-06-22T11:18:04;98226.97;;;31.17;24.21
63321;BME280;49449;48.800;9.534;2023-06-22T11:20:34;98226.25;;;31.23;24.17
63321;BME280;49449;48.800;9.534;2023-06-22T11:23:05;98229.88;;;31.35;24.11
63321;BME280;49449;48.800;9.534;2023-06-22T11:25:34;98226.84;;;31.43;24.31
63321;BME280;49449;48.800;9.534;2023-06-22T11:28:02;98224.06;;;31.40;23.88
63321;BME280;49449;48.800;9.534;2023-06-22T11:30:30;98227.19;;;31.38;23.95
63321;BME280;49449;48.800;9.534;2023-06-22T11:32:58;98223.66;;;31.38;24.43
63321;BME280;49449;48.800;9.534;2023-06-22T11:35:26;98224.88;;;31.44;24.26
63321;BME280;49449;48.800;9.534;2023-06-22T11:37:55;98217.91;;;31.46;23.84
63321;BME280;49449;48.800;9.534;2023-06-22T11:40:24;98220.25;;;31.48;23.81
63321;BME280;49449;48.800;9.534;2023-06-22T11:42:52;98227.56;;;31.40;23.47
63321;BME280;49449;48.800;9.534;2023-06-22T11:45:20;98220.22;;;31.44;23.89
63321;BME280;49449;48.800;9.534;2023-06-22T11:47:48;98215.50;;;31.41;23.45
63321;BME280;49449;48.800;9.534;2023-06-22T11:50:16;98215.50;;;31.41;23.70
63321;BME280;49449;48.800;9.534;2023-06-22T11:52:44;98207.78;;;31.50;24.19
63321;BME280;49449;48.800;9.534;2023-06-22T11:55:13;98206.56;;;31.41;24.23
63321;BME280;49449;48.800;9.534;2023-06-22T11:57:53;98213.72;;;31.19;24.73
63321;BME280;49449;48.800;9.534;2023-06-22T12:00:21;98214.50;;;31.19;24.38
63321;BME280;49449;48.800;9.534;2023-06-22T12:02:52;98216.84;;;31.17;24.68
63321;BME280;49449;48.800;9.534;2023-06-22T12:05:20;98217.88;;;31.05;24.84
63321;BME280;49449;48.800;9.534;2023-06-22T12:07:48;98218.09;;;30.89;25.18
63321;BME280;49449;48.800;9.534;2023-06-22T12:10:17;98217.25;;;30.85;25.38
63321;BME280;49449;48.800;9.534;2023-06-22T12:12:45;98214.88;;;30.84;25.30
63321;BME280;49449;48.800;9.534;2023-06-22T12:15:14;98214.06;;;30.80;25.52
63321;BME280;49449;48.800;9.534;2023-06-22T12:17:42;98217.97;;;30.79;25.65
63321;BME280;49449;48.800;9.534;2023-06-22T12:20:10;98220.00;;;30.89;25.63
63321;BME280;49449;48.800;9.534;2023-06-22T12:22:38;98216.06;;;30.83;25.53
63321;BME280;49449;48.800;9.534;2023-06-22T12:25:07;98198.88;;;30.79;25.34
63321;BME280;49449;48.800;9.534;2023-06-22T12:27:37;98203.94;;;30.80;25.13
63321;BME280;49449;48.800;9.534;2023-06-22T12:30:05;98204.28;;;30.75;25.64
63321;BME280;49449;48.800;9.534;2023-06-22T12:32:33;98200.75;;;30.74;25.73
63321;BME280;49449;48.800;9.534;2023-06-22T12:35:01;98200.81;;;30.78;25.91
63321;BME280;49449;48.800;9.534;2023-06-22T12:37:29;98204.72;;;30.77;26.16
63321;BME280;49449;48.800;9.534;2023-06-22T12:39:58;98207.84;;;30.79;25.97
63321;BME280;49449;48.800;9.534;2023-06-22T12:42:25;98215.53;;;30.70;25.80
63321;BME280;49449;48.800;9.534;2023-06-22T12:44:56;98206.50;;;30.66;26.07
63321;BME280;49449;48.800;9.534;2023-06-22T12:47:23;98220.41;;;30.61;26.23
63321;BME280;49449;48.800;9.534;2023-06-22T12:49:51;98228.56;;;30.57;26.50
63321;BME280;49449;48.800;9.534;2023-06-22T12:52:19;98237.84;;;30.52;26.58
63321;BME280;49449;48.800;9.534;2023-06-22T12:54:47;98242.47;;;30.48;26.65
63321;BME280;49449;48.800;9.534;2023-06-22T12:57:19;98252.13;;;30.42;26.71
63321;BME280;49449;48.800;9.534;2023-06-22T12:59:47;98258.97;;;30.32;26.83
63321;BME280;49449;48.800;9.534;2023-06-22T13:02:16;98261.53;;;30.22;26.89
63321;BME280;49449;48.800;9.534;2023-06-22T13:04:44;98262.94;;;30.12;27.33
63321;BME280;49449;48.800;9.534;2023-06-22T13:07:12;98262.03;;;30.04;27.00
63321;BME280;49449;48.800;9.534;2023-06-22T13:09:46;98262.88;;;30.08;26.74